Time;durP1;ratioP1;P1;durP2;ratioP2;P2;SDS_P1;SDS_P2;PMS_P1;PMS_P2;Temp;Humidity;BMP_temperature;BMP_pressure;BME280_temperature;BME280_humidity;BME280_pressure;Samples;Min_cycle;Max_cycle;Signal;HPM_P1;HPM_P2
2022/01/19 00:00:59;;;;;;;13.03;9.10;;;;;;;-0.07;100.00;99730.34;5092696;28;20416;-68
2022/01/19 00:03:26;;;;;;;10.83;8.77;;;;;;;-0.07;100.00;99743.34;5091575;28;20211;-68
2022/01/19 00:05:52;;;;;;;15.60;9.90;;;;;;;-0.09;100.00;99729.50;5093246;28;20219;-68
2022/01/19 00:08:21;;;;;;;13.50;10.20;;;;;;;-0.03;100.00;99729.47;5093125;28;20235;-68
2022/01/19 00:10:51;;;;;;;11.57;8.70;;;;;;;0.01;100.00;99716.47;5094419;28;20268;-68
2022/01/19 00:13:18;;;;;;;9.90;7.80;;;;;;;-0.01;100.00;99705.22;5094786;28;20211;-68
2022/01/19 00:15:45;;;;;;;11.73;8.80;;;;;;;-0.03;100.00;99688.78;5094528;28;20218;-68
2022/01/19 00:18:12;;;;;;;14.20;9.57;;;;;;;0.01;100.00;99682.69;5094833;28;20583;-68
2022/01/19 00:20:39;;;;;;;14.33;9.13;;;;;;;0.00;100.00;99683.56;5094379;28;20210;-68
2022/01/19 00:23:06;;;;;;;12.37;8.97;;;;;;;0.08;100.00;99688.75;5094383;28;20210;-68
2022/01/19 00:25:33;;;;;;;13.83;9.37;;;;;;;0.10;100.00;99690.47;5094665;28;20313;-68
2022/01/19 00:28:01;;;;;;;14.30;8.87;;;;;;;0.19;100.00;99700.81;5092800;28;20460;-68
2022/01/19 00:30:28;;;;;;;13.83;8.50;;;;;;;0.17;100.00;99699.97;5094480;28;20214;-68
2022/01/19 00:32:54;;;;;;;11.90;8.70;;;;;;;0.14;100.00;99699.97;5094397;28;20234;-68
2022/01/19 00:35:21;;;;;;;13.27;9.07;;;;;;;0.18;100.00;99713.81;5094415;28;20213;-68
2022/01/19 00:37:47;;;;;;;13.07;9.00;;;;;;;0.20;100.00;99727.69;5091460;28;20691;-68
2022/01/19 00:40:15;;;;;;;14.60;9.03;;;;;;;0.15;100.00;99730.31;5092957;28;20218;-68
2022/01/19 00:42:42;;;;;;;14.77;9.80;;;;;;;0.20;100.00;99718.13;5093975;28;20215;-68
2022/01/19 00:45:11;;;;;;;13.63;9.53;;;;;;;0.23;100.00;99720.75;5094146;28;20218;-68
2022/01/19 00:47:37;;;;;;;14.47;9.67;;;;;;;0.22;100.00;99726.81;5094082;28;20235;-68
2022/01/19 00:50:05;;;;;;;15.30;9.53;;;;;;;0.23;100.00;99717.28;5094204;28;20224;-68
2022/01/19 00:52:32;;;;;;;12.80;9.67;;;;;;;0.22;100.00;99720.75;5094176;28;20210;-68
2022/01/19 00:54:59;;;;;;;16.73;9.63;;;;;;;0.21;100.00;99722.50;5092210;28;20241;-68
2022/01/19 00:57:25;;;;;;;14.67;9.87;;;;;;;0.22;100.00;99716.44;5093759;28;20215;-68
2022/01/19 00:59:52;;;;;;;13.50;9.20;;;;;;;0.24;100.00;99719.88;5093960;28;20215;-68
2022/01/19 01:02:20;;;;;;;12.53;9.47;;;;;;;0.23;100.00;99719.88;5093739;28;20242;-68
2022/01/19 01:04:46;;;;;;;12.77;9.23;;;;;;;0.20;100.00;99718.13;5093758;28;20293;-68
2022/01/19 01:07:13;;;;;;;12.70;9.73;;;;;;;0.17;100.00;99718.16;5093558;28;20219;-68
2022/01/19 01:09:39;;;;;;;12.67;9.03;;;;;;;0.13;100.00;99715.59;5093685;28;20234;-68
2022/01/19 01:12:12;;;;;;;15.50;10.00;;;;;;;0.18;100.00;99719.91;5093604;28;20572;-69
2022/01/19 01:20:12;;;;;;;13.67;10.33;;;;;;;0.08;100.00;99706.94;5090284;28;20217;-68
2022/01/19 01:22:39;;;;;;;14.87;10.13;;;;;;;0.06;100.00;99699.13;5093506;28;20332;-68
2022/01/19 01:25:08;;;;;;;17.17;10.37;;;;;;;0.11;100.00;99687.00;5092816;28;20218;-68
2022/01/19 01:27:34;;;;;;;15.53;10.37;;;;;;;0.07;100.00;99677.47;5093283;28;20218;-68
2022/01/19 01:30:01;;;;;;;15.87;10.33;;;;;;;0.10;100.00;99668.78;5093401;28;20214;-68
2022/01/19 01:32:29;;;;;;;15.10;10.17;;;;;;;0.06;100.00;99673.13;5093390;28;20214;-68
2022/01/19 01:34:55;;;;;;;15.20;10.27;;;;;;;0.14;100.00;99673.97;5093461;28;20214;-68
2022/01/19 01:37:22;;;;;;;15.47;10.57;;;;;;;0.07;100.00;99672.25;5093354;28;20221;-68
2022/01/19 01:39:48;;;;;;;13.23;9.60;;;;;;;0.08;100.00;99681.78;5093052;28;20699;-68
2022/01/19 01:42:18;;;;;;;18.77;10.27;;;;;;;0.11;100.00;99684.41;5093031;28;20206;-68
2022/01/19 01:44:49;;;;;;;15.63;10.00;;;;;;;0.06;100.00;99699.13;5093025;28;20223;-68
2022/01/19 01:47:18;;;;;;;14.33;9.63;;;;;;;0.04;100.00;99695.69;5089035;28;20624;-68
2022/01/19 01:53:25;;;;;;;15.63;10.53;;;;;;;0.03;100.00;99693.97;5093187;28;20667;-68
2022/01/19 01:55:21;;;;;;;14.87;10.83;;;;;;;0.14;100.00;99676.56;5051394;28;20318;-68
2022/01/19 01:57:48;;;;;;;15.57;11.10;;;;;;;0.13;100.00;99672.25;5042629;28;20223;-68
2022/01/19 02:00:19;;;;;;;14.47;10.03;;;;;;;0.08;100.00;99675.75;5049099;28;20598;-68
2022/01/19 02:02:47;;;;;;;15.27;10.63;;;;;;;0.05;100.00;99666.22;5047857;28;20216;-68
2022/01/19 02:05:15;;;;;;;16.00;11.13;;;;;;;-0.01;100.00;99655.84;5049455;28;20244;-68
2022/01/19 02:07:47;;;;;;;13.63;10.13;;;;;;;0.00;100.00;99651.53;5049532;28;20224;-68
2022/01/19 02:10:30;;;;;;;18.27;10.87;;;;;;;-0.04;100.00;99650.63;5048256;28;20240;-68
2022/01/19 02:15:56;;;;;;;15.33;10.57;;;;;;;0.04;100.00;99643.69;5043464;28;20582;-68
2022/01/19 02:23:55;;;;;;;12.87;9.10;;;;;;;-0.08;100.00;99632.47;5052560;28;20222;-68
2022/01/19 02:26:27;;;;;;;13.57;9.03;;;;;;;-0.13;100.00;99621.22;5052571;28;20224;-68
2022/01/19 02:29:06;;;;;;;14.97;9.40;;;;;;;-0.13;100.00;99617.78;5050238;28;20251;-68
2022/01/19 02:42:38;;;;;;;15.07;9.47;;;;;;;-0.20;100.00;99592.69;5056031;28;20257;-68
2022/01/19 02:50:35;;;;;;;12.70;9.17;;;;;;;-0.30;100.00;99589.25;5054188;28;20227;-68
2022/01/19 02:53:03;;;;;;;13.00;9.80;;;;;;;-0.32;100.00;99583.19;5062739;28;20238;-68
2022/01/19 02:55:31;;;;;;;14.50;9.90;;;;;;;-0.38;100.00;99575.41;5096372;28;20211;-68
2022/01/19 02:57:58;;;;;;;17.63;10.57;;;;;;;-0.48;100.00;99565.94;5096316;28;20221;-68
2022/01/19 03:08:45;;;;;;;13.77;8.63;;;;;;;-0.91;100.00;99540.94;5085533;28;20275;-68
2022/01/19 03:11:12;;;;;;;15.13;9.87;;;;;;;-0.99;100.00;99523.66;5096187;28;20275;-68
2022/01/19 03:13:39;;;;;;;12.57;8.57;;;;;;;-1.14;100.00;99513.28;5096139;28;20214;-68
2022/01/19 03:16:05;;;;;;;15.50;10.00;;;;;;;-1.26;100.00;99505.53;5095972;28;20214;-68
2022/01/19 03:18:32;;;;;;;13.20;9.57;;;;;;;-1.35;100.00;99510.72;5095913;28;20237;-68
2022/01/19 03:20:59;;;;;;;20.60;11.10;;;;;;;-1.48;100.00;99498.63;5095825;28;20246;-68
2022/01/19 03:23:25;;;;;;;13.17;9.77;;;;;;;-1.57;100.00;99496.91;5095425;28;20220;-68
2022/01/19 03:25:54;;;;;;;14.70;9.83;;;;;;;-1.64;100.00;99491.72;5095681;28;20218;-68
2022/01/19 03:28:21;;;;;;;16.07;11.13;;;;;;;-1.52;100.00;99509.84;5095655;28;20242;-68
2022/01/19 03:30:48;;;;;;;16.30;10.80;;;;;;;-1.48;100.00;99488.28;5094005;28;20552;-68
2022/01/19 03:33:15;;;;;;;15.90;11.50;;;;;;;-1.51;100.00;99493.44;5095258;28;20213;-68
2022/01/19 03:35:43;;;;;;;18.47;10.87;;;;;;;-1.57;100.00;99472.69;5095564;28;20215;-68
2022/01/19 03:38:12;;;;;;;17.20;11.10;;;;;;;-1.65;100.00;99477.88;5095504;28;20257;-68
2022/01/19 03:40:39;;;;;;;18.53;10.97;;;;;;;-1.63;100.00;99475.28;5095541;28;20248;-68
2022/01/19 03:43:08;;;;;;;19.30;11.43;;;;;;;-1.71;100.00;99475.28;5095422;28;20211;-68
2022/01/19 03:45:34;;;;;;;17.50;11.07;;;;;;;-1.73;100.00;99469.25;5095351;28;20218;-68
2022/01/19 03:48:20;;;;;;;17.33;10.87;;;;;;;-1.72;100.00;99483.06;5095071;28;20210;-68
2022/01/19 03:50:47;;;;;;;19.53;11.73;;;;;;;-1.72;100.00;99480.47;5095382;28;20659;-68
2022/01/19 03:53:14;;;;;;;16.23;10.97;;;;;;;-1.71;100.00;99479.63;5095126;28;20238;-68
2022/01/19 03:55:40;;;;;;;17.70;12.47;;;;;;;-1.62;100.00;99482.19;5094573;28;20705;-68
2022/01/19 03:58:08;;;;;;;19.43;12.40;;;;;;;-1.54;100.00;99477.91;5094182;28;20211;-68
2022/01/19 04:00:40;;;;;;;19.67;12.60;;;;;;;-1.55;100.00;99470.97;5095016;28;20232;-68
2022/01/19 04:03:07;;;;;;;21.07;13.07;;;;;;;-1.52;100.00;99470.97;5094964;28;20221;-68
2022/01/19 04:05:42;;;;;;;20.00;12.10;;;;;;;-1.55;100.00;99460.59;5094996;28;20221;-68
2022/01/19 04:08:09;;;;;;;17.47;11.33;;;;;;;-1.60;100.00;99463.19;5095120;28;20239;-68
2022/01/19 04:10:35;;;;;;;18.23;12.03;;;;;;;-1.67;100.00;99455.44;5094621;28;20213;-68
2022/01/19 04:13:11;;;;;;;15.57;10.80;;;;;;;-1.77;100.00;99451.94;5094851;28;20228;-68
2022/01/19 04:15:39;;;;;;;15.70;10.90;;;;;;;-1.87;100.00;99451.97;5094855;28;20217;-68
2022/01/19 04:18:05;;;;;;;16.17;10.93;;;;;;;-1.97;100.00;99455.41;5094527;28;20222;-68
2022/01/19 04:20:40;;;;;;;17.63;11.67;;;;;;;-2.01;100.00;99448.50;5094574;28;20219;-68
2022/01/19 04:23:07;;;;;;;15.17;10.77;;;;;;;-2.02;100.00;99441.59;5091905;28;20220;-68
2022/01/19 04:25:33;;;;;;;17.87;11.17;;;;;;;-2.03;100.00;99445.91;5094727;28;20224;-68
2022/01/19 04:28:02;;;;;;;23.83;14.30;;;;;;;-1.95;100.00;99432.97;5094329;28;20684;-68
2022/01/19 04:30:29;;;;;;;22.70;14.27;;;;;;;-1.95;100.00;99438.13;5094177;28;20240;-68
2022/01/19 04:33:05;;;;;;;22.00;14.07;;;;;;;-1.95;100.00;99423.47;5094308;28;20222;-68
2022/01/19 04:35:44;;;;;;;25.13;13.93;;;;;;;-2.03;100.00;99429.50;5094614;28;20210;-68
2022/01/19 04:44:07;;;;;;;22.50;14.00;;;;;;;-1.90;100.00;99418.28;5094050;28;20216;-68
2022/01/19 04:47:17;;;;;;;21.90;13.73;;;;;;;-1.85;100.00;99408.78;5091934;28;20253;-68
2022/01/19 05:03:46;;;;;;;18.17;12.07;;;;;;;-1.61;100.00;99398.41;5093662;28;20603;-68
2022/01/19 05:06:17;;;;;;;19.23;12.50;;;;;;;-1.65;100.00;99392.34;5094146;28;20296;-68
2022/01/19 05:09:05;;;;;;;20.63;12.63;;;;;;;-1.67;100.00;99388.06;5093566;28;20722;-68
2022/01/19 05:14:16;;;;;;;19.53;11.50;;;;;;;-1.67;100.00;99381.13;5091242;28;20253;-68
2022/01/19 05:16:42;;;;;;;22.00;13.23;;;;;;;-1.70;100.00;99378.56;5093909;28;20210;-68
2022/01/19 05:19:09;;;;;;;20.40;11.70;;;;;;;-1.71;100.00;99375.97;5093628;28;20215;-68
2022/01/19 05:21:37;;;;;;;20.43;12.70;;;;;;;-1.80;100.00;99370.75;5093502;28;20215;-68
2022/01/19 05:24:06;;;;;;;20.90;12.73;;;;;;;-1.70;100.00;99369.91;5093521;28;20210;-68
2022/01/19 05:26:35;;;;;;;19.73;12.10;;;;;;;-1.71;100.00;99361.25;5093633;28;20242;-68
2022/01/19 05:29:01;;;;;;;22.97;13.27;;;;;;;-1.78;100.00;99363.88;5093265;28;20243;-68
2022/01/19 05:31:28;;;;;;;24.13;13.33;;;;;;;-1.86;100.00;99365.59;5090659;28;20209;-68
2022/01/19 05:33:54;;;;;;;19.23;12.63;;;;;;;-1.89;100.00;99371.63;5093314;28;20219;-68
2022/01/19 05:36:21;;;;;;;19.87;11.83;;;;;;;-1.91;100.00;99359.56;5093522;28;20218;-68
2022/01/19 05:38:49;;;;;;;21.77;12.53;;;;;;;-1.93;100.00;99364.75;5093189;28;20214;-68
2022/01/19 05:41:15;;;;;;;20.50;12.87;;;;;;;-1.84;100.00;99349.19;5091246;28;20699;-68
2022/01/19 05:43:42;;;;;;;21.90;14.27;;;;;;;-1.95;100.00;99350.94;5093331;28;20584;-68
2022/01/19 05:46:08;;;;;;;22.77;12.53;;;;;;;-1.90;100.00;99343.16;5093347;28;20219;-68
2022/01/19 05:48:35;;;;;;;28.57;14.43;;;;;;;-1.87;100.00;99332.78;5093255;28;20213;-68
2022/01/19 05:51:02;;;;;;;24.70;14.70;;;;;;;-1.82;100.00;99331.03;5092941;28;20224;-68
2022/01/19 05:53:28;;;;;;;23.57;14.97;;;;;;;-1.78;100.00;99333.63;5093023;28;20240;-68
2022/01/19 05:55:56;;;;;;;31.40;16.00;;;;;;;-1.67;100.00;99328.44;5093091;28;20222;-68
2022/01/19 05:58:22;;;;;;;35.50;17.53;;;;;;;-1.72;100.00;99328.44;5093199;28;20242;-68
2022/01/19 06:00:49;;;;;;;27.37;15.03;;;;;;;-1.72;100.00;99330.19;5093049;28;20215;-68
2022/01/19 06:03:17;;;;;;;24.93;15.07;;;;;;;-1.75;100.00;99330.16;5093312;28;20213;-68
2022/01/19 06:05:43;;;;;;;22.40;14.30;;;;;;;-1.79;100.00;99336.25;5092868;28;20307;-68
2022/01/19 06:08:17;;;;;;;23.80;15.00;;;;;;;-1.92;100.00;99325.03;5091707;28;20215;-68
2022/01/19 06:10:44;;;;;;;25.60;14.50;;;;;;;-1.98;100.00;99324.16;5094964;28;20234;-68
2022/01/19 06:13:13;;;;;;;23.50;14.57;;;;;;;-2.00;100.00;99325.88;5097095;28;20217;-68
2022/01/19 06:15:39;;;;;;;25.87;14.30;;;;;;;-2.04;100.00;99325.03;5096763;28;20695;-68
2022/01/19 06:18:06;;;;;;;22.30;13.57;;;;;;;-2.12;100.00;99315.53;5096734;28;20217;-68
2022/01/19 06:20:32;;;;;;;25.80;13.67;;;;;;;-2.15;100.00;99331.94;5096600;28;20693;-68
2022/01/19 06:22:59;;;;;;;20.40;13.90;;;;;;;-2.14;100.00;99325.03;5096970;28;20213;-68
2022/01/19 06:25:25;;;;;;;24.33;14.00;;;;;;;-2.26;100.00;99319.88;5096954;28;20224;-68
2022/01/19 06:27:52;;;;;;;25.23;14.33;;;;;;;-2.27;100.00;99329.34;5096607;28;20229;-68
2022/01/19 06:30:20;;;;;;;20.83;13.00;;;;;;;-2.31;100.00;99329.34;5096420;28;20240;-67
2022/01/19 06:32:46;;;;;;;24.43;13.60;;;;;;;-2.32;100.00;99335.41;5092750;28;20218;-68
2022/01/19 06:35:13;;;;;;;20.33;12.33;;;;;;;-2.35;100.00;99338.84;5096795;28;20228;-68
2022/01/19 06:37:39;;;;;;;20.67;12.23;;;;;;;-2.35;100.00;99348.31;5096414;28;20674;-67
2022/01/19 06:40:08;;;;;;;24.53;13.50;;;;;;;-2.33;100.00;99347.47;5096713;28;20226;-68
2022/01/19 06:42:35;;;;;;;18.83;12.30;;;;;;;-2.31;100.00;99338.00;5096562;28;20215;-68
2022/01/19 06:45:02;;;;;;;21.97;12.80;;;;;;;-2.35;100.00;99333.66;5096632;28;20585;-68
2022/01/19 06:47:31;;;;;;;18.77;12.67;;;;;;;-2.30;100.00;99325.88;5096341;28;20212;-67
2022/01/19 06:49:58;;;;;;;22.87;14.03;;;;;;;-2.35;100.00;99327.59;5096591;28;20244;-67
2022/01/19 06:52:25;;;;;;;25.50;14.67;;;;;;;-2.25;100.00;99329.34;5095663;28;20218;-67
2022/01/19 06:54:52;;;;;;;25.63;13.50;;;;;;;-2.27;100.00;99318.16;5086349;28;20617;-67
2022/01/19 06:57:18;;;;;;;21.07;13.93;;;;;;;-2.27;100.00;99320.72;5096477;28;20218;-68
2022/01/19 06:59:45;;;;;;;23.73;14.33;;;;;;;-2.27;100.00;99321.56;5094863;28;20213;-68
2022/01/19 07:02:12;;;;;;;24.27;13.27;;;;;;;-2.21;100.00;99320.72;5096238;28;20580;-67
2022/01/19 07:04:47;;;;;;;24.50;13.57;;;;;;;-2.19;100.00;99319.00;5095966;28;20212;-67
2022/01/19 07:07:13;;;;;;;23.57;13.90;;;;;;;-2.27;100.00;99321.56;5095944;28;20217;-67
2022/01/19 07:09:40;;;;;;;21.03;12.90;;;;;;;-2.31;100.00;99316.41;5096047;28;20230;-68
2022/01/19 07:12:07;;;;;;;24.70;14.37;;;;;;;-2.34;100.00;99319.84;5093731;28;20210;-68
2022/01/19 07:14:34;;;;;;;19.43;12.43;;;;;;;-2.30;100.00;99310.34;5096261;28;20217;-68
2022/01/19 07:17:00;;;;;;;20.97;13.23;;;;;;;-2.29;100.00;99312.09;5096031;28;20214;-68
2022/01/19 07:19:27;;;;;;;21.00;13.63;;;;;;;-2.23;100.00;99304.31;5095954;28;20222;-68
2022/01/19 07:21:54;;;;;;;23.33;14.50;;;;;;;-2.20;100.00;99314.69;5095303;28;20262;-67
2022/01/19 07:24:21;;;;;;;26.07;15.10;;;;;;;-2.22;100.00;99308.63;5094154;28;20221;-67
2022/01/19 07:26:48;;;;;;;26.90;14.43;;;;;;;-2.20;100.00;99306.91;5095900;28;20209;-67
2022/01/19 07:29:14;;;;;;;27.57;14.27;;;;;;;-2.19;100.00;99309.50;5095501;28;20219;-67
2022/01/19 07:31:41;;;;;;;23.27;14.47;;;;;;;-2.17;100.00;99306.91;5095447;28;20221;-68
2022/01/19 07:34:07;;;;;;;26.20;15.00;;;;;;;-2.15;100.00;99300.00;5095421;28;20229;-67
2022/01/19 07:36:34;;;;;;;24.23;13.87;;;;;;;-2.18;100.00;99305.19;5095614;28;20213;-67
2022/01/19 07:39:02;;;;;;;25.33;13.83;;;;;;;-2.14;100.00;99304.31;5095213;28;20228;-67
2022/01/19 07:41:28;;;;;;;25.87;14.40;;;;;;;-2.13;100.00;99299.16;5095431;28;20223;-67
2022/01/19 07:43:55;;;;;;;23.13;15.20;;;;;;;-2.09;100.00;99297.41;5095259;28;20218;-67
2022/01/19 07:46:21;;;;;;;23.40;14.07;;;;;;;-2.09;100.00;99292.25;5095010;28;20675;-67
2022/01/19 07:48:48;;;;;;;24.63;15.27;;;;;;;-2.08;100.00;99288.78;5093759;28;20224;-67
2022/01/19 07:51:14;;;;;;;22.80;14.77;;;;;;;-2.11;100.00;99281.88;5091111;28;20249;-68
2022/01/19 07:53:41;;;;;;;25.87;14.13;;;;;;;-2.01;100.00;99282.72;5082691;28;20746;-67
2022/01/19 07:56:09;;;;;;;29.70;16.83;;;;;;;-1.99;100.00;99280.97;5094117;28;20212;-68
2022/01/19 07:58:35;;;;;;;22.67;14.60;;;;;;;-1.95;100.00;99280.13;5094846;28;20592;-67
2022/01/19 08:01:02;;;;;;;23.40;13.57;;;;;;;-1.91;100.00;99279.25;5095011;28;20293;-67
2022/01/19 08:03:28;;;;;;;22.47;14.53;;;;;;;-1.84;100.00;99275.78;5094996;28;20209;-66
2022/01/19 08:05:54;;;;;;;23.73;14.33;;;;;;;-1.71;100.00;99272.28;5094998;28;20220;-66
2022/01/19 08:08:21;;;;;;;29.03;15.60;;;;;;;-1.59;100.00;99273.09;5086020;28;20256;-67
2022/01/19 08:10:48;;;;;;;26.87;16.20;;;;;;;-1.50;100.00;99267.03;5094874;28;20263;-67
2022/01/19 08:13:16;;;;;;;24.80;15.80;;;;;;;-1.44;100.00;99267.00;5095008;28;20234;-66
2022/01/19 08:15:42;;;;;;;25.63;16.33;;;;;;;-1.38;100.00;99265.25;5094616;28;20679;-67
2022/01/19 08:18:09;;;;;;;23.73;14.83;;;;;;;-1.31;100.00;99268.66;5093106;28;20218;-67
2022/01/19 08:20:35;;;;;;;29.03;16.40;;;;;;;-1.21;100.00;99270.38;5094758;28;20210;-67
2022/01/19 08:23:03;;;;;;;30.73;16.23;;;;;;;-1.15;100.00;99262.56;5094695;28;20225;-67
2022/01/19 08:25:30;;;;;;;26.53;16.00;;;;;;;-1.06;100.00;99259.94;5094287;28;20215;-67
2022/01/19 08:27:56;;;;;;;25.93;15.33;;;;;;;-1.00;100.00;99259.91;5094542;28;20577;-67
2022/01/19 08:30:24;;;;;;;25.00;15.57;;;;;;;-0.97;100.00;99259.84;5093936;28;20738;-67
2022/01/19 08:32:51;;;;;;;23.60;15.07;;;;;;;-0.86;100.00;99252.88;5093912;28;20221;-67
2022/01/19 08:35:17;;;;;;;25.80;15.13;;;;;;;-0.78;100.00;99253.69;5093763;28;20222;-67
2022/01/19 08:37:44;;;;;;;25.73;16.93;;;;;;;-0.74;100.00;99257.97;5094115;28;20218;-67
2022/01/19 08:40:12;;;;;;;23.63;16.53;;;;;;;-0.67;100.00;99259.66;5094291;28;20210;-67
2022/01/19 08:42:39;;;;;;;31.30;16.63;;;;;;;-0.62;100.00;99265.69;5092345;28;20297;-67
2022/01/19 08:45:09;;;;;;;24.57;15.67;;;;;;;-0.52;100.00;99264.72;5094391;28;20217;-67
2022/01/19 08:47:40;;;;;;;29.00;15.63;;;;;;;-0.44;100.00;99262.97;5094345;28;20628;-67
2022/01/19 08:50:10;;;;;;;26.83;15.83;;;;;;;-0.30;100.00;99269.75;5093852;28;20241;-67
2022/01/19 08:52:37;;;;;;;26.90;15.93;;;;;;;-0.21;100.00;99269.66;5094001;28;20210;-68
2022/01/19 08:55:05;;;;;;;23.47;15.30;;;;;;;-0.17;100.00;99254.91;5093866;28;20222;-67
2022/01/19 08:57:32;;;;;;;29.17;15.77;;;;;;;-0.13;100.00;99260.06;5094032;28;20207;-67
2022/01/19 08:59:58;;;;;;;30.13;16.93;;;;;;;-0.07;100.00;99260.00;5093728;28;20214;-67
2022/01/19 09:02:25;;;;;;;27.57;16.13;;;;;;;0.00;100.00;99254.75;5093731;28;20593;-67
2022/01/19 09:04:53;;;;;;;23.23;14.70;;;;;;;0.06;100.00;99257.28;5093905;28;20217;-67
2022/01/19 09:07:20;;;;;;;26.87;15.23;;;;;;;0.13;100.00;99266.75;5093853;28;20217;-67
2022/01/19 09:09:46;;;;;;;30.10;16.37;;;;;;;0.21;100.00;99262.34;5089469;28;20577;-67
2022/01/19 09:12:13;;;;;;;25.77;15.83;;;;;;;0.28;100.00;99266.59;5093479;28;20684;-67
2022/01/19 09:14:39;;;;;;;26.53;15.73;;;;;;;0.27;100.00;99262.28;5093788;28;20224;-67
2022/01/19 09:17:07;;;;;;;27.07;16.30;;;;;;;0.37;100.00;99257.84;5093316;28;20702;-66
2022/01/19 09:19:35;;;;;;;23.23;15.63;;;;;;;0.45;100.00;99256.84;5093292;28;20222;-66
2022/01/19 09:22:04;;;;;;;24.67;15.97;;;;;;;0.51;100.00;99267.19;5093706;28;20616;-66
2022/01/19 09:24:31;;;;;;;22.33;14.90;;;;;;;0.55;100.00;99263.66;5086491;28;20304;-64
2022/01/19 09:26:57;;;;;;;25.23;15.83;;;;;;;0.64;100.00;99267.91;5093604;28;20225;-64
2022/01/19 09:29:24;;;;;;;23.90;15.67;;;;;;;0.64;100.00;99258.38;5093460;28;20215;-66
2022/01/19 09:31:50;;;;;;;25.17;15.80;;;;;;;0.73;100.00;99259.97;5093325;28;20246;-65
2022/01/19 09:34:20;;;;;;;28.83;16.37;;;;;;;0.77;100.00;99254.75;5091241;28;20221;-66
2022/01/19 09:36:48;;;;;;;25.87;16.10;;;;;;;0.82;100.00;99247.75;5093131;28;20683;-66
2022/01/19 09:39:17;;;;;;;27.50;16.47;;;;;;;0.90;100.00;99251.09;5093240;28;20211;-66
2022/01/19 09:41:46;;;;;;;23.37;15.70;;;;;;;0.97;100.00;99247.53;5093268;28;20218;-66
2022/01/19 09:44:13;;;;;;;24.87;15.77;;;;;;;1.02;100.00;99245.72;5093149;28;20214;-66
2022/01/19 09:46:39;;;;;;;21.70;14.87;;;;;;;1.05;100.00;99240.44;5092698;28;20226;-67
2022/01/19 09:49:06;;;;;;;27.07;16.13;;;;;;;1.11;100.00;99240.38;5090444;28;20210;-66
2022/01/19 09:51:33;;;;;;;22.97;14.53;;;;;;;1.15;100.00;99236.84;5092796;28;20249;-67
2022/01/19 09:54:00;;;;;;;21.90;14.93;;;;;;;1.20;100.00;99240.25;5093199;28;20235;-66
2022/01/19 09:56:29;;;;;;;21.53;15.13;;;;;;;1.22;100.00;99228.06;5093095;28;20301;-66
2022/01/19 09:58:56;;;;;;;23.47;14.70;;;;;;;1.27;100.00;99226.25;5092791;28;20210;-67
2022/01/19 10:01:24;;;;;;;24.93;16.07;;;;;;;1.32;100.00;99228.78;5091480;28;20298;-67
2022/01/19 10:03:51;;;;;;;21.93;14.87;;;;;;;1.37;100.00;99219.16;5092881;28;20719;-67
2022/01/19 10:06:22;;;;;;;22.33;14.50;;;;;;;1.42;100.00;99210.38;5093185;28;20226;-67
2022/01/19 10:08:50;;;;;;;22.07;13.77;;;;;;;1.51;100.00;99215.44;5090206;28;20684;-66
2022/01/19 10:11:21;;;;;;;23.90;14.57;;;;;;;1.57;100.00;99204.94;5092741;28;20241;-66
2022/01/19 10:17:01;;;;;;;22.13;13.80;;;;;;;1.63;100.00;99188.31;5048757;28;20265;-67
2022/01/19 10:19:31;;;;;;;20.80;14.27;;;;;;;1.72;100.00;99183.81;5077592;28;20309;-67
2022/01/19 10:22:00;;;;;;;20.37;13.60;;;;;;;1.69;100.00;99176.06;5092959;28;20214;-67
2022/01/19 10:24:42;;;;;;;23.03;13.13;;;;;;;1.81;100.00;99165.41;5092635;28;20584;-67
2022/01/19 10:27:25;;;;;;;20.63;13.10;;;;;;;1.88;100.00;99160.94;5080537;28;20242;-67
2022/01/19 10:29:56;;;;;;;22.07;13.40;;;;;;;1.92;100.00;99163.47;5092554;28;20213;-67
2022/01/19 10:32:23;;;;;;;20.47;12.27;;;;;;;1.99;100.00;99154.66;5089721;28;20230;-67
2022/01/19 10:34:51;;;;;;;18.50;12.93;;;;;;;2.06;100.00;99158.84;5092430;28;20222;-67
2022/01/19 10:37:26;;;;;;;18.60;12.53;;;;;;;2.12;100.00;99152.66;5092843;28;20215;-67
2022/01/19 10:39:54;;;;;;;20.80;12.47;;;;;;;2.04;100.00;99144.13;5092737;28;20214;-67
2022/01/19 10:42:23;;;;;;;18.63;12.03;;;;;;;2.07;100.00;99138.84;5092740;28;20588;-67
2022/01/19 10:44:51;;;;;;;19.20;12.10;;;;;;;2.19;100.00;99131.63;5081835;28;20218;-67
2022/01/19 10:47:38;;;;;;;17.97;12.70;;;;;;;2.27;100.00;99131.50;5092305;28;20227;-67
2022/01/19 10:50:06;;;;;;;21.30;13.83;;;;;;;2.48;100.00;99128.41;5092518;28;20588;-67
2022/01/19 10:52:36;;;;;;;16.57;11.93;;;;;;;2.55;100.00;99125.66;5090819;28;20243;-67
2022/01/19 10:55:06;;;;;;;18.77;13.10;;;;;;;2.60;100.00;99131.63;5092521;28;20218;-67
2022/01/19 10:57:36;;;;;;;22.87;14.33;;;;;;;2.66;100.00;99126.28;5094146;28;20219;-67
2022/01/19 11:00:19;;;;;;;19.30;12.73;;;;;;;2.63;100.00;99126.34;5096442;28;20217;-67
2022/01/19 11:02:48;;;;;;;17.73;12.83;;;;;;;2.67;100.00;99128.00;5087322;28;20253;-67
2022/01/19 11:05:15;;;;;;;21.07;13.13;;;;;;;2.75;100.00;99120.84;5096181;28;20210;-67
2022/01/19 11:07:42;;;;;;;19.43;14.33;;;;;;;2.82;100.00;99122.41;5096132;28;20211;-67
2022/01/19 11:10:13;;;;;;;18.83;12.73;;;;;;;2.90;100.00;99128.34;5096069;28;20217;-67
2022/01/19 11:12:45;;;;;;;20.73;12.87;;;;;;;2.94;100.00;99121.28;5095921;28;20239;-67
2022/01/19 11:15:13;;;;;;;16.67;12.10;;;;;;;2.93;100.00;99115.19;5095669;28;20236;-67
2022/01/19 11:17:39;;;;;;;15.60;11.37;;;;;;;2.92;100.00;99105.66;5096079;28;20211;-67
2022/01/19 11:20:11;;;;;;;17.40;12.80;;;;;;;2.94;100.00;99111.69;5094243;28;20218;-67
2022/01/19 11:22:50;;;;;;;17.80;11.27;;;;;;;2.97;100.00;99105.53;5095608;28;20219;-67
2022/01/19 11:25:27;;;;;;;13.97;11.00;;;;;;;2.98;100.00;99110.72;5095551;28;20685;-67
2022/01/19 11:27:54;;;;;;;17.40;11.90;;;;;;;2.98;100.00;99108.13;5094550;28;20249;-67
2022/01/19 11:30:23;;;;;;;18.77;11.97;;;;;;;3.02;100.00;99098.47;5095949;28;20587;-68
2022/01/19 11:33:14;;;;;;;18.00;11.77;;;;;;;3.05;100.00;99094.03;5095564;28;20231;-68
2022/01/19 11:35:44;;;;;;;17.63;11.80;;;;;;;3.17;100.00;99079.81;5093708;28;20215;-67
2022/01/19 11:38:31;;;;;;;16.10;10.47;;;;;;;3.28;100.00;99086.47;5095418;28;20233;-68
2022/01/19 11:40:59;;;;;;;16.53;11.03;;;;;;;3.28;100.00;99086.47;5095394;28;20642;-68
2022/01/19 11:43:29;;;;;;;14.53;10.17;;;;;;;3.44;100.00;99077.38;5095223;28;20676;-68
2022/01/19 11:45:56;;;;;;;14.63;10.37;;;;;;;3.34;100.00;99081.09;5093910;28;20599;-67
2022/01/19 11:48:24;;;;;;;13.87;9.70;;;;;;;3.50;98.09;99079.81;5095296;28;20222;-67
2022/01/19 11:50:53;;;;;;;16.97;10.30;;;;;;;3.60;97.19;99073.44;5095408;28;20243;-67
2022/01/19 11:53:21;;;;;;;13.47;9.83;;;;;;;3.60;95.86;99073.44;5095009;28;20235;-68
2022/01/19 11:56:03;;;;;;;13.90;9.03;;;;;;;3.58;94.28;99075.25;5095219;28;20221;-67
2022/01/19 11:58:29;;;;;;;13.87;9.17;;;;;;;3.60;95.02;99073.44;5094968;28;20218;-68
2022/01/19 12:00:57;;;;;;;12.90;8.93;;;;;;;3.93;91.11;99071.66;5095040;28;20219;-67
2022/01/19 12:03:26;;;;;;;13.10;9.40;;;;;;;3.85;90.00;99058.78;5095212;28;20210;-68
2022/01/19 12:05:55;;;;;;;13.13;8.93;;;;;;;3.88;91.07;99063.06;5095146;28;20211;-67
2022/01/19 12:08:27;;;;;;;13.30;9.93;;;;;;;3.91;90.83;99049.94;5094456;28;20219;-68
2022/01/19 12:10:57;;;;;;;13.80;9.00;;;;;;;3.84;91.08;99049.22;5093194;28;20211;-68
2022/01/19 12:13:34;;;;;;;14.90;10.07;;;;;;;3.76;91.64;99047.72;5094647;28;20699;-68
2022/01/19 12:16:06;;;;;;;14.10;9.27;;;;;;;3.85;91.49;99053.56;5094941;28;20211;-68
2022/01/19 12:18:48;;;;;;;13.23;8.43;;;;;;;3.78;90.67;99048.56;5094729;28;20250;-68
2022/01/19 12:21:32;;;;;;;10.00;8.07;;;;;;;3.69;91.71;99052.28;5084482;28;20215;-68
2022/01/19 12:24:15;;;;;;;12.60;9.00;;;;;;;3.76;90.69;99039.88;5094782;28;20288;-68
2022/01/19 12:26:53;;;;;;;11.43;8.53;;;;;;;3.79;90.17;99045.03;5093881;28;20213;-68
2022/01/19 12:29:38;;;;;;;10.83;8.30;;;;;;;3.78;90.85;99049.41;5094457;28;20214;-68